sensor_id;sensor_type;location;lat;lon;timestamp;temperature;humidity
16384;DHT22;8301;51.440;6.610;2023-06-26T00:02:09;21.50;1.00
16384;DHT22;8301;51.440;6.610;2023-06-26T00:04:37;21.50;1.00
16384;DHT22;8301;51.440;6.610;2023-06-26T00:07:04;21.40;1.00
16384;DHT22;8301;51.440;6.610;2023-06-26T00:09:31;21.40;1.00
16384;DHT22;8301;51.440;6.610;2023-06-26T00:11:58;21.30;1.00
16384;DHT22;8301;51.440;6.610;2023-06-26T00:14:25;21.30;1.00
16384;DHT22;8301;51.440;6.610;2023-06-26T00:16:52;21.30;1.00
16384;DHT22;8301;51.440;6.610;2023-06-26T00:19:19;21.30;1.00
16384;DHT22;8301;51.440;6.610;2023-06-26T00:21:46;21.30;1.00
16384;DHT22;8301;51.440;6.610;2023-06-26T00:24:14;21.30;99.90
16384;DHT22;8301;51.440;6.610;2023-06-26T00:26:41;21.30;99.90
16384;DHT22;8301;51.440;6.610;2023-06-26T00:29:08;21.30;1.00
16384;DHT22;8301;51.440;6.610;2023-06-26T00:31:34;21.30;1.00
16384;DHT22;8301;51.440;6.610;2023-06-26T00:34:01;21.20;99.90
16384;DHT22;8301;51.440;6.610;2023-06-26T00:36:28;21.20;1.00
16384;DHT22;8301;51.440;6.610;2023-06-26T00:38:55;21.20;1.00
16384;DHT22;8301;51.440;6.610;2023-06-26T00:41:22;21.20;1.00
16384;DHT22;8301;51.440;6.610;2023-06-26T00:43:49;21.20;99.90
16384;DHT22;8301;51.440;6.610;2023-06-26T00:46:16;21.20;1.00
16384;DHT22;8301;51.440;6.610;2023-06-26T00:48:44;21.10;1.00
16384;DHT22;8301;51.440;6.610;2023-06-26T00:51:12;21.10;1.00
16384;DHT22;8301;51.440;6.610;2023-06-26T00:53:39;21.10;1.00
16384;DHT22;8301;51.440;6.610;2023-06-26T00:56:06;21.10;1.00
16384;DHT22;8301;51.440;6.610;2023-06-26T00:58:33;21.00;1.00
16384;DHT22;8301;51.440;6.610;2023-06-26T01:01:00;21.00;1.00
16384;DHT22;8301;51.440;6.610;2023-06-26T01:03:28;21.00;1.00
16384;DHT22;8301;51.440;6.610;2023-06-26T01:05:56;21.00;1.00
16384;DHT22;8301;51.440;6.610;2023-06-26T01:08:23;21.00;1.00
16384;DHT22;8301;51.440;6.610;2023-06-26T01:10:50;21.00;1.00
16384;DHT22;8301;51.440;6.610;2023-06-26T01:13:17;21.00;1.00
16384;DHT22;8301;51.440;6.610;2023-06-26T01:15:43;21.00;99.90
16384;DHT22;8301;51.440;6.610;2023-06-26T01:18:11;21.00;1.00
16384;DHT22;8301;51.440;6.610;2023-06-26T01:20:40;21.00;99.90
16384;DHT22;8301;51.440;6.610;2023-06-26T01:23:22;21.00;1.00
16384;DHT22;8301;51.440;6.610;2023-06-26T01:28:37;20.90;1.00
16384;DHT22;8301;51.440;6.610;2023-06-26T01:31:05;20.90;1.00
16384;DHT22;8301;51.440;6.610;2023-06-26T01:33:32;20.90;1.00
16384;DHT22;8301;51.440;6.610;2023-06-26T01:35:59;20.90;1.00
16384;DHT22;8301;51.440;6.610;2023-06-26T01:38:27;20.90;1.00
16384;DHT22;8301;51.440;6.610;2023-06-26T01:40:53;20.90;1.00
16384;DHT22;8301;51.440;6.610;2023-06-26T01:43:24;20.80;1.00
16384;DHT22;8301;51.440;6.610;2023-06-26T01:45:50;20.90;1.00
16384;DHT22;8301;51.440;6.610;2023-06-26T01:48:19;20.90;1.00
16384;DHT22;8301;51.440;6.610;2023-06-26T01:50:46;20.90;1.00
16384;DHT22;8301;51.440;6.610;2023-06-26T01:53:17;20.80;1.00
16384;DHT22;8301;51.440;6.610;2023-06-26T01:55:46;20.80;1.00
16384;DHT22;8301;51.440;6.610;2023-06-26T01:58:13;20.80;1.00
16384;DHT22;8301;51.440;6.610;2023-06-26T02:00:43;20.70;1.00
16384;DHT22;8301;51.440;6.610;2023-06-26T02:03:09;20.70;1.00
16384;DHT22;8301;51.440;6.610;2023-06-26T02:05:36;20.70;1.00
16384;DHT22;8301;51.440;6.610;2023-06-26T02:08:03;20.60;1.00
16384;DHT22;8301;51.440;6.610;2023-06-26T02:10:30;20.70;1.00
16384;DHT22;8301;51.440;6.610;2023-06-26T02:12:57;20.70;1.00
16384;DHT22;8301;51.440;6.610;2023-06-26T02:15:24;20.70;1.00
16384;DHT22;8301;51.440;6.610;2023-06-26T02:17:50;20.70;1.00
16384;DHT22;8301;51.440;6.610;2023-06-26T02:20:17;20.70;1.00
16384;DHT22;8301;51.440;6.610;2023-06-26T02:22:44;20.70;1.00
16384;DHT22;8301;51.440;6.610;2023-06-26T02:25:11;20.60;1.00
16384;DHT22;8301;51.440;6.610;2023-06-26T02:27:38;20.60;1.00
16384;DHT22;8301;51.440;6.610;2023-06-26T02:30:05;20.50;1.00
16384;DHT22;8301;51.440;6.610;2023-06-26T02:32:32;20.50;1.00
16384;DHT22;8301;51.440;6.610;2023-06-26T02:34:59;20.50;1.00
16384;DHT22;8301;51.440;6.610;2023-06-26T02:37:26;20.50;1.00
16384;DHT22;8301;51.440;6.610;2023-06-26T02:39:52;20.50;1.00
16384;DHT22;8301;51.440;6.610;2023-06-26T02:42:19;20.50;1.00
16384;DHT22;8301;51.440;6.610;2023-06-26T02:44:46;20.50;1.00
16384;DHT22;8301;51.440;6.610;2023-06-26T02:47:13;20.50;1.00
16384;DHT22;8301;51.440;6.610;2023-06-26T02:49:40;20.40;1.00
16384;DHT22;8301;51.440;6.610;2023-06-26T02:52:07;20.30;1.00
16384;DHT22;8301;51.440;6.610;2023-06-26T02:54:34;20.20;1.00
16384;DHT22;8301;51.440;6.610;2023-06-26T02:57:01;20.10;1.00
16384;DHT22;8301;51.440;6.610;2023-06-26T02:59:27;20.20;1.00
16384;DHT22;8301;51.440;6.610;2023-06-26T03:01:54;20.30;1.00
16384;DHT22;8301;51.440;6.610;2023-06-26T03:04:21;20.30;1.00
16384;DHT22;8301;51.440;6.610;2023-06-26T03:06:48;20.40;1.00
16384;DHT22;8301;51.440;6.610;2023-06-26T03:09:15;20.40;1.00
16384;DHT22;8301;51.440;6.610;2023-06-26T03:11:42;20.40;1.00
16384;DHT22;8301;51.440;6.610;2023-06-26T03:14:09;20.30;1.00
16384;DHT22;8301;51.440;6.610;2023-06-26T03:16:36;20.30;1.00
16384;DHT22;8301;51.440;6.610;2023-06-26T03:19:03;20.30;1.00
16384;DHT22;8301;51.440;6.610;2023-06-26T03:21:30;20.30;1.00
16384;DHT22;8301;51.440;6.610;2023-06-26T03:23:57;20.20;1.00
16384;DHT22;8301;51.440;6.610;2023-06-26T03:26:24;20.20;1.00
16384;DHT22;8301;51.440;6.610;2023-06-26T03:28:53;20.20;1.00
16384;DHT22;8301;51.440;6.610;2023-06-26T03:31:20;20.20;1.00
16384;DHT22;8301;51.440;6.610;2023-06-26T03:33:46;20.10;1.00
16384;DHT22;8301;51.440;6.610;2023-06-26T03:36:13;20.20;1.00
16384;DHT22;8301;51.440;6.610;2023-06-26T03:38:40;20.20;1.00
16384;DHT22;8301;51.440;6.610;2023-06-26T03:41:07;20.20;1.00
16384;DHT22;8301;51.440;6.610;2023-06-26T03:43:34;20.20;1.00
16384;DHT22;8301;51.440;6.610;2023-06-26T03:46:03;20.20;1.00
16384;DHT22;8301;51.440;6.610;2023-06-26T03:48:30;20.20;1.00
16384;DHT22;8301;51.440;6.610;2023-06-26T03:50:57;20.30;1.00
16384;DHT22;8301;51.440;6.610;2023-06-26T03:53:24;20.30;1.00
16384;DHT22;8301;51.440;6.610;2023-06-26T03:55:51;20.30;1.00
16384;DHT22;8301;51.440;6.610;2023-06-26T03:58:18;20.20;1.00
16384;DHT22;8301;51.440;6.610;2023-06-26T04:00:44;20.30;99.90
16384;DHT22;8301;51.440;6.610;2023-06-26T04:03:13;20.30;99.90
16384;DHT22;8301;51.440;6.610;2023-06-26T04:05:40;20.30;99.90
16384;DHT22;8301;51.440;6.610;2023-06-26T04:08:07;20.30;99.90
16384;DHT22;8301;51.440;6.610;2023-06-26T04:10:34;20.40;99.90
16384;DHT22;8301;51.440;6.610;2023-06-26T04:13:02;20.40;99.90
16384;DHT22;8301;51.440;6.610;2023-06-26T04:15:29;20.40;99.90
16384;DHT22;8301;51.440;6.610;2023-06-26T04:17:55;20.40;99.90
16384;DHT22;8301;51.440;6.610;2023-06-26T04:20:22;20.50;99.90
16384;DHT22;8301;51.440;6.610;2023-06-26T04:22:49;20.40;99.90
16384;DHT22;8301;51.440;6.610;2023-06-26T04:25:16;20.50;99.90
16384;DHT22;8301;51.440;6.610;2023-06-26T04:27:43;20.50;99.90
16384;DHT22;8301;51.440;6.610;2023-06-26T04:30:10;20.50;99.90
16384;DHT22;8301;51.440;6.610;2023-06-26T04:32:38;20.60;99.90
16384;DHT22;8301;51.440;6.610;2023-06-26T04:35:05;20.60;99.90
16384;DHT22;8301;51.440;6.610;2023-06-26T04:37:32;20.60;99.90
16384;DHT22;8301;51.440;6.610;2023-06-26T04:39:58;20.70;99.90
16384;DHT22;8301;51.440;6.610;2023-06-26T04:42:25;20.70;99.90
16384;DHT22;8301;51.440;6.610;2023-06-26T04:44:52;20.70;99.90
16384;DHT22;8301;51.440;6.610;2023-06-26T04:47:19;20.70;99.90
16384;DHT22;8301;51.440;6.610;2023-06-26T04:49:46;20.70;99.90
16384;DHT22;8301;51.440;6.610;2023-06-26T04:52:13;20.70;99.90
16384;DHT22;8301;51.440;6.610;2023-06-26T04:54:40;20.70;99.90
16384;DHT22;8301;51.440;6.610;2023-06-26T04:57:07;20.70;1.00
16384;DHT22;8301;51.440;6.610;2023-06-26T04:59:34;20.80;99.90
16384;DHT22;8301;51.440;6.610;2023-06-26T05:02:01;20.80;1.00
16384;DHT22;8301;51.440;6.610;2023-06-26T05:04:28;20.90;99.90
16384;DHT22;8301;51.440;6.610;2023-06-26T05:06:55;20.80;99.90
16384;DHT22;8301;51.440;6.610;2023-06-26T05:09:22;20.80;99.90
16384;DHT22;8301;51.440;6.610;2023-06-26T05:11:49;20.80;99.90
16384;DHT22;8301;51.440;6.610;2023-06-26T05:14:16;20.70;1.00
16384;DHT22;8301;51.440;6.610;2023-06-26T05:16:42;20.70;1.00
16384;DHT22;8301;51.440;6.610;2023-06-26T05:19:09;20.80;99.90
16384;DHT22;8301;51.440;6.610;2023-06-26T05:21:36;20.90;99.90
16384;DHT22;8301;51.440;6.610;2023-06-26T05:24:03;21.20;99.90
16384;DHT22;8301;51.440;6.610;2023-06-26T05:26:31;21.30;99.90
16384;DHT22;8301;51.440;6.610;2023-06-26T05:28:58;21.20;99.90
16384;DHT22;8301;51.440;6.610;2023-06-26T05:31:25;21.10;99.90
16384;DHT22;8301;51.440;6.610;2023-06-26T05:33:52;21.00;99.90
16384;DHT22;8301;51.440;6.610;2023-06-26T05:36:20;20.80;99.90
16384;DHT22;8301;51.440;6.610;2023-06-26T05:38:48;20.80;99.90
16384;DHT22;8301;51.440;6.610;2023-06-26T05:41:16;20.70;99.90
16384;DHT22;8301;51.440;6.610;2023-06-26T05:43:43;20.80;99.90
16384;DHT22;8301;51.440;6.610;2023-06-26T05:46:10;20.80;99.90
16384;DHT22;8301;51.440;6.610;2023-06-26T05:48:37;20.80;99.90
16384;DHT22;8301;51.440;6.610;2023-06-26T05:51:04;20.70;99.90
16384;DHT22;8301;51.440;6.610;2023-06-26T05:53:31;20.80;99.90
16384;DHT22;8301;51.440;6.610;2023-06-26T05:55:58;20.80;99.90
16384;DHT22;8301;51.440;6.610;2023-06-26T05:58:26;20.80;99.90
16384;DHT22;8301;51.440;6.610;2023-06-26T06:00:53;20.70;99.90
16384;DHT22;8301;51.440;6.610;2023-06-26T06:03:21;20.50;99.90
16384;DHT22;8301;51.440;6.610;2023-06-26T06:05:48;20.40;1.00
16384;DHT22;8301;51.440;6.610;2023-06-26T06:08:14;20.40;1.00
16384;DHT22;8301;51.440;6.610;2023-06-26T06:10:41;20.50;1.00
16384;DHT22;8301;51.440;6.610;2023-06-26T06:13:09;20.50;1.00
16384;DHT22;8301;51.440;6.610;2023-06-26T06:15:36;20.40;1.00
16384;DHT22;8301;51.440;6.610;2023-06-26T06:18:03;20.50;1.00
16384;DHT22;8301;51.440;6.610;2023-06-26T06:20:30;20.70;1.00
16384;DHT22;8301;51.440;6.610;2023-06-26T06:22:57;20.90;1.00
16384;DHT22;8301;51.440;6.610;2023-06-26T06:25:24;21.20;99.90
16384;DHT22;8301;51.440;6.610;2023-06-26T06:27:51;21.10;99.90
16384;DHT22;8301;51.440;6.610;2023-06-26T06:30:18;21.50;99.90
16384;DHT22;8301;51.440;6.610;2023-06-26T06:32:45;21.80;99.90
16384;DHT22;8301;51.440;6.610;2023-06-26T06:35:13;22.00;99.90
16384;DHT22;8301;51.440;6.610;2023-06-26T06:37:40;22.00;99.90
16384;DHT22;8301;51.440;6.610;2023-06-26T06:40:08;21.70;99.90
16384;DHT22;8301;51.440;6.610;2023-06-26T06:42:35;21.70;99.90
16384;DHT22;8301;51.440;6.610;2023-06-26T06:45:02;21.70;99.90
16384;DHT22;8301;51.440;6.610;2023-06-26T06:47:29;21.50;99.90
16384;DHT22;8301;51.440;6.610;2023-06-26T06:49:56;21.40;99.90
16384;DHT22;8301;51.440;6.610;2023-06-26T06:52:23;21.40;1.00
16384;DHT22;8301;51.440;6.610;2023-06-26T06:54:53;21.60;99.90
16384;DHT22;8301;51.440;6.610;2023-06-26T06:57:21;21.50;99.90
16384;DHT22;8301;51.440;6.610;2023-06-26T06:59:48;21.50;99.90
16384;DHT22;8301;51.440;6.610;2023-06-26T07:02:17;21.70;99.90
16384;DHT22;8301;51.440;6.610;2023-06-26T07:04:43;21.80;99.90
16384;DHT22;8301;51.440;6.610;2023-06-26T07:07:10;22.00;99.90
16384;DHT22;8301;51.440;6.610;2023-06-26T07:09:36;22.10;99.90
16384;DHT22;8301;51.440;6.610;2023-06-26T07:12:03;22.30;99.90
16384;DHT22;8301;51.440;6.610;2023-06-26T07:14:30;22.40;99.90
16384;DHT22;8301;51.440;6.610;2023-06-26T07:16:57;22.30;99.90
16384;DHT22;8301;51.440;6.610;2023-06-26T07:19:24;22.30;99.90
16384;DHT22;8301;51.440;6.610;2023-06-26T07:21:51;22.30;99.90
16384;DHT22;8301;51.440;6.610;2023-06-26T07:24:17;22.30;99.90
16384;DHT22;8301;51.440;6.610;2023-06-26T07:26:44;22.40;99.90
16384;DHT22;8301;51.440;6.610;2023-06-26T07:29:11;22.70;99.90
16384;DHT22;8301;51.440;6.610;2023-06-26T07:31:38;22.80;99.90
16384;DHT22;8301;51.440;6.610;2023-06-26T07:34:05;22.60;99.90
16384;DHT22;8301;51.440;6.610;2023-06-26T07:36:32;22.80;99.90
16384;DHT22;8301;51.440;6.610;2023-06-26T07:38:58;22.60;99.90
16384;DHT22;8301;51.440;6.610;2023-06-26T07:41:25;22.30;99.90
16384;DHT22;8301;51.440;6.610;2023-06-26T07:43:52;22.70;99.90
16384;DHT22;8301;51.440;6.610;2023-06-26T07:46:19;22.70;99.90
16384;DHT22;8301;51.440;6.610;2023-06-26T07:48:46;22.70;99.90
16384;DHT22;8301;51.440;6.610;2023-06-26T07:51:12;22.60;22.20
16384;DHT22;8301;51.440;6.610;2023-06-26T07:53:39;22.80;99.90
16384;DHT22;8301;51.440;6.610;2023-06-26T07:56:06;23.00;1.00
16384;DHT22;8301;51.440;6.610;2023-06-26T07:58:33;23.10;33.30
16384;DHT22;8301;51.440;6.610;2023-06-26T08:01:00;23.20;46.00
16384;DHT22;8301;51.440;6.610;2023-06-26T08:03:26;23.10;1.00
16384;DHT22;8301;51.440;6.610;2023-06-26T08:05:53;22.80;99.90
16384;DHT22;8301;51.440;6.610;2023-06-26T08:10:53;23.00;99.90
16384;DHT22;8301;51.440;6.610;2023-06-26T08:13:40;22.70;99.90
16384;DHT22;8301;51.440;6.610;2023-06-26T08:16:06;22.40;99.90
16384;DHT22;8301;51.440;6.610;2023-06-26T08:18:33;22.20;93.80
16384;DHT22;8301;51.440;6.610;2023-06-26T08:21:00;22.40;90.10
16384;DHT22;8301;51.440;6.610;2023-06-26T08:23:27;22.90;99.90
16384;DHT22;8301;51.440;6.610;2023-06-26T08:25:54;23.10;1.00
16384;DHT22;8301;51.440;6.610;2023-06-26T08:28:22;23.10;1.20
16384;DHT22;8301;51.440;6.610;2023-06-26T08:30:49;22.90;1.00
16384;DHT22;8301;51.440;6.610;2023-06-26T08:33:16;22.90;1.00
16384;DHT22;8301;51.440;6.610;2023-06-26T08:35:42;23.20;1.00
16384;DHT22;8301;51.440;6.610;2023-06-26T08:38:09;23.60;1.00
16384;DHT22;8301;51.440;6.610;2023-06-26T08:40:36;23.50;1.00
16384;DHT22;8301;51.440;6.610;2023-06-26T08:43:04;23.10;1.00
16384;DHT22;8301;51.440;6.610;2023-06-26T08:45:31;23.10;1.00
16384;DHT22;8301;51.440;6.610;2023-06-26T08:47:59;23.40;1.00
16384;DHT22;8301;51.440;6.610;2023-06-26T08:50:27;23.70;1.00
16384;DHT22;8301;51.440;6.610;2023-06-26T08:55:33;23.90;1.00
16384;DHT22;8301;51.440;6.610;2023-06-26T08:58:01;24.00;1.00
16384;DHT22;8301;51.440;6.610;2023-06-26T09:00:29;24.10;1.00
16384;DHT22;8301;51.440;6.610;2023-06-26T09:02:56;24.00;1.00
16384;DHT22;8301;51.440;6.610;2023-06-26T09:05:23;23.90;1.00
16384;DHT22;8301;51.440;6.610;2023-06-26T09:07:49;23.90;1.00
16384;DHT22;8301;51.440;6.610;2023-06-26T09:10:17;24.00;1.00
16384;DHT22;8301;51.440;6.610;2023-06-26T09:12:45;24.30;1.00
16384;DHT22;8301;51.440;6.610;2023-06-26T09:15:14;24.30;1.00
16384;DHT22;8301;51.440;6.610;2023-06-26T09:17:41;24.50;1.00
16384;DHT22;8301;51.440;6.610;2023-06-26T09:20:08;24.70;1.00
16384;DHT22;8301;51.440;6.610;2023-06-26T09:22:37;24.80;1.00
16384;DHT22;8301;51.440;6.610;2023-06-26T09:25:08;24.80;1.00
16384;DHT22;8301;51.440;6.610;2023-06-26T09:27:37;24.10;1.00
16384;DHT22;8301;51.440;6.610;2023-06-26T09:30:05;24.00;1.00
16384;DHT22;8301;51.440;6.610;2023-06-26T09:32:38;24.20;1.00
16384;DHT22;8301;51.440;6.610;2023-06-26T09:35:05;24.30;1.00
16384;DHT22;8301;51.440;6.610;2023-06-26T09:40:02;24.70;1.00
16384;DHT22;8301;51.440;6.610;2023-06-26T09:42:29;24.90;1.00
16384;DHT22;8301;51.440;6.610;2023-06-26T09:44:56;24.80;1.00
16384;DHT22;8301;51.440;6.610;2023-06-26T09:47:23;25.20;1.00
16384;DHT22;8301;51.440;6.610;2023-06-26T09:49:50;25.30;1.00
16384;DHT22;8301;51.440;6.610;2023-06-26T09:52:18;24.90;1.00
16384;DHT22;8301;51.440;6.610;2023-06-26T09:54:45;24.80;1.00
16384;DHT22;8301;51.440;6.610;2023-06-26T09:57:13;24.30;1.00
16384;DHT22;8301;51.440;6.610;2023-06-26T09:59:40;24.10;1.00
16384;DHT22;8301;51.440;6.610;2023-06-26T10:02:07;24.60;1.00
16384;DHT22;8301;51.440;6.610;2023-06-26T10:04:35;25.00;1.00
16384;DHT22;8301;51.440;6.610;2023-06-26T10:07:02;25.00;1.00
16384;DHT22;8301;51.440;6.610;2023-06-26T10:09:30;25.40;1.00
16384;DHT22;8301;51.440;6.610;2023-06-26T10:11:58;24.90;1.00
16384;DHT22;8301;51.440;6.610;2023-06-26T10:14:31;24.80;1.00
16384;DHT22;8301;51.440;6.610;2023-06-26T10:16:56;24.90;1.00
16384;DHT22;8301;51.440;6.610;2023-06-26T10:19:22;24.90;1.00
16384;DHT22;8301;51.440;6.610;2023-06-26T10:21:52;24.50;1.00
16384;DHT22;8301;51.440;6.610;2023-06-26T10:24:19;25.00;1.00
16384;DHT22;8301;51.440;6.610;2023-06-26T10:26:49;25.20;1.00
16384;DHT22;8301;51.440;6.610;2023-06-26T10:29:15;25.10;1.00
16384;DHT22;8301;51.440;6.610;2023-06-26T10:31:44;25.30;1.00
16384;DHT22;8301;51.440;6.610;2023-06-26T10:34:12;25.20;1.00
16384;DHT22;8301;51.440;6.610;2023-06-26T10:36:41;24.50;1.00
16384;DHT22;8301;51.440;6.610;2023-06-26T10:39:08;24.10;1.00
16384;DHT22;8301;51.440;6.610;2023-06-26T10:41:38;24.10;1.00
16384;DHT22;8301;51.440;6.610;2023-06-26T10:44:12;24.00;1.00
16384;DHT22;8301;51.440;6.610;2023-06-26T10:46:48;24.10;1.00
16384;DHT22;8301;51.440;6.610;2023-06-26T10:49:28;24.30;1.00
16384;DHT22;8301;51.440;6.610;2023-06-26T10:51:48;25.00;1.00
16384;DHT22;8301;51.440;6.610;2023-06-26T10:54:16;25.20;1.00
16384;DHT22;8301;51.440;6.610;2023-06-26T10:56:44;25.00;1.00
16384;DHT22;8301;51.440;6.610;2023-06-26T10:59:22;25.20;1.00
16384;DHT22;8301;51.440;6.610;2023-06-26T11:01:46;25.70;1.00
16384;DHT22;8301;51.440;6.610;2023-06-26T11:04:14;25.60;1.00
16384;DHT22;8301;51.440;6.610;2023-06-26T11:06:44;26.00;1.00
16384;DHT22;8301;51.440;6.610;2023-06-26T11:09:13;25.90;1.00
16384;DHT22;8301;51.440;6.610;2023-06-26T11:14:23;26.00;1.00
16384;DHT22;8301;51.440;6.610;2023-06-26T11:16:50;25.40;1.00
16384;DHT22;8301;51.440;6.610;2023-06-26T11:19:18;25.30;1.00
16384;DHT22;8301;51.440;6.610;2023-06-26T11:21:45;25.90;1.00
16384;DHT22;8301;51.440;6.610;2023-06-26T11:24:12;25.70;1.00
16384;DHT22;8301;51.440;6.610;2023-06-26T11:26:43;25.50;1.00
16384;DHT22;8301;51.440;6.610;2023-06-26T11:29:10;25.60;1.00
16384;DHT22;8301;51.440;6.610;2023-06-26T11:31:38;25.80;1.00
16384;DHT22;8301;51.440;6.610;2023-06-26T11:34:06;26.00;1.00
16384;DHT22;8301;51.440;6.610;2023-06-26T11:36:35;25.10;1.00
16384;DHT22;8301;51.440;6.610;2023-06-26T11:39:03;24.90;1.00
16384;DHT22;8301;51.440;6.610;2023-06-26T11:41:34;24.90;1.00
16384;DHT22;8301;51.440;6.610;2023-06-26T11:44:07;25.10;1.00
16384;DHT22;8301;51.440;6.610;2023-06-26T11:46:33;24.90;1.00
16384;DHT22;8301;51.440;6.610;2023-06-26T11:49:05;25.20;1.00
16384;DHT22;8301;51.440;6.610;2023-06-26T11:51:30;25.10;1.00
16384;DHT22;8301;51.440;6.610;2023-06-26T11:53:56;25.40;1.00
16384;DHT22;8301;51.440;6.610;2023-06-26T11:56:24;25.40;1.00
16384;DHT22;8301;51.440;6.610;2023-06-26T12:01:34;25.00;1.00
16384;DHT22;8301;51.440;6.610;2023-06-26T12:04:01;25.30;1.00
16384;DHT22;8301;51.440;6.610;2023-06-26T12:06:37;25.00;1.00
16384;DHT22;8301;51.440;6.610;2023-06-26T12:09:01;25.20;1.00
16384;DHT22;8301;51.440;6.610;2023-06-26T12:11:32;25.60;1.00
16384;DHT22;8301;51.440;6.610;2023-06-26T12:14:00;25.70;1.00
16384;DHT22;8301;51.440;6.610;2023-06-26T12:16:28;25.90;1.00
16384;DHT22;8301;51.440;6.610;2023-06-26T12:19:03;25.90;1.00
16384;DHT22;8301;51.440;6.610;2023-06-26T12:24:07;25.50;1.00
16384;DHT22;8301;51.440;6.610;2023-06-26T12:26:35;25.80;1.00
16384;DHT22;8301;51.440;6.610;2023-06-26T12:29:05;25.60;1.00
16384;DHT22;8301;51.440;6.610;2023-06-26T12:31:33;25.30;1.00
16384;DHT22;8301;51.440;6.610;2023-06-26T12:34:01;25.60;1.00
16384;DHT22;8301;51.440;6.610;2023-06-26T12:36:28;25.30;1.00
16384;DHT22;8301;51.440;6.610;2023-06-26T12:38:55;25.40;1.00
16384;DHT22;8301;51.440;6.610;2023-06-26T12:41:26;25.40;1.00
16384;DHT22;8301;51.440;6.610;2023-06-26T12:43:55;25.00;1.00
16384;DHT22;8301;51.440;6.610;2023-06-26T12:46:18;25.20;1.00
16384;DHT22;8301;51.440;6.610;2023-06-26T12:48:46;25.40;1.00
16384;DHT22;8301;51.440;6.610;2023-06-26T12:51:14;25.60;1.00
16384;DHT22;8301;51.440;6.610;2023-06-26T12:53:41;25.70;1.00
16384;DHT22;8301;51.440;6.610;2023-06-26T12:56:08;25.60;1.00
16384;DHT22;8301;51.440;6.610;2023-06-26T12:58:36;25.50;1.00
16384;DHT22;8301;51.440;6.610;2023-06-26T13:01:05;25.40;1.00
16384;DHT22;8301;51.440;6.610;2023-06-26T13:03:33;25.40;1.00
16384;DHT22;8301;51.440;6.610;2023-06-26T13:06:00;25.40;1.00
16384;DHT22;8301;51.440;6.610;2023-06-26T13:08:27;25.80;1.00
16384;DHT22;8301;51.440;6.610;2023-06-26T13:10:54;25.40;1.00
16384;DHT22;8301;51.440;6.610;2023-06-26T13:13:21;25.10;1.00
16384;DHT22;8301;51.440;6.610;2023-06-26T13:15:48;25.00;1.00
16384;DHT22;8301;51.440;6.610;2023-06-26T13:18:16;25.10;1.00
16384;DHT22;8301;51.440;6.610;2023-06-26T13:20:44;25.00;1.00
16384;DHT22;8301;51.440;6.610;2023-06-26T13:23:11;25.10;1.00
16384;DHT22;8301;51.440;6.610;2023-06-26T13:25:37;24.70;1.00
16384;DHT22;8301;51.440;6.610;2023-06-26T13:28:04;24.80;1.00
16384;DHT22;8301;51.440;6.610;2023-06-26T13:30:31;24.50;1.00
16384;DHT22;8301;51.440;6.610;2023-06-26T13:32:58;24.50;1.00
16384;DHT22;8301;51.440;6.610;2023-06-26T13:35:25;24.50;1.00
16384;DHT22;8301;51.440;6.610;2023-06-26T13:37:51;24.60;1.00
16384;DHT22;8301;51.440;6.610;2023-06-26T13:40:18;24.60;1.00
16384;DHT22;8301;51.440;6.610;2023-06-26T13:42:45;24.50;1.00
16384;DHT22;8301;51.440;6.610;2023-06-26T13:45:12;24.80;1.00
16384;DHT22;8301;51.440;6.610;2023-06-26T13:47:39;24.90;1.00
16384;DHT22;8301;51.440;6.610;2023-06-26T13:50:08;25.00;1.00
16384;DHT22;8301;51.440;6.610;2023-06-26T13:52:36;25.00;1.00
16384;DHT22;8301;51.440;6.610;2023-06-26T13:55:03;25.00;1.00
16384;DHT22;8301;51.440;6.610;2023-06-26T13:57:33;24.80;1.00
16384;DHT22;8301;51.440;6.610;2023-06-26T14:00:00;25.10;1.00
16384;DHT22;8301;51.440;6.610;2023-06-26T14:02:28;24.90;1.00
16384;DHT22;8301;51.440;6.610;2023-06-26T14:04:55;24.40;1.00
16384;DHT22;8301;51.440;6.610;2023-06-26T14:07:23;24.60;1.00
16384;DHT22;8301;51.440;6.610;2023-06-26T14:09:50;24.80;1.00
16384;DHT22;8301;51.440;6.610;2023-06-26T14:12:17;25.20;1.00
16384;DHT22;8301;51.440;6.610;2023-06-26T14:14:44;25.00;1.00
16384;DHT22;8301;51.440;6.610;2023-06-26T14:17:16;24.60;1.00
16384;DHT22;8301;51.440;6.610;2023-06-26T14:19:43;24.50;1.00
16384;DHT22;8301;51.440;6.610;2023-06-26T14:22:11;24.90;1.00
16384;DHT22;8301;51.440;6.610;2023-06-26T14:24:38;25.40;1.00
16384;DHT22;8301;51.440;6.610;2023-06-26T14:27:11;25.40;1.00
16384;DHT22;8301;51.440;6.610;2023-06-26T14:29:38;25.20;1.00
16384;DHT22;8301;51.440;6.610;2023-06-26T14:32:06;24.90;1.00
16384;DHT22;8301;51.440;6.610;2023-06-26T14:34:39;24.50;1.00
16384;DHT22;8301;51.440;6.610;2023-06-26T14:37:06;24.80;1.00
16384;DHT22;8301;51.440;6.610;2023-06-26T14:39:33;24.80;1.00
16384;DHT22;8301;51.440;6.610;2023-06-26T14:42:00;24.70;1.00
16384;DHT22;8301;51.440;6.610;2023-06-26T14:44:27;24.80;1.00
16384;DHT22;8301;51.440;6.610;2023-06-26T14:46:55;24.60;1.00
16384;DHT22;8301;51.440;6.610;2023-06-26T14:49:22;24.70;1.00
16384;DHT22;8301;51.440;6.610;2023-06-26T14:51:49;24.30;1.00
16384;DHT22;8301;51.440;6.610;2023-06-26T14:54:15;24.60;1.00
16384;DHT22;8301;51.440;6.610;2023-06-26T14:56:42;25.20;1.00
16384;DHT22;8301;51.440;6.610;2023-06-26T14:59:29;25.10;1.00
16384;DHT22;8301;51.440;6.610;2023-06-26T15:04:46;24.80;1.00
16384;DHT22;8301;51.440;6.610;2023-06-26T15:07:12;25.00;1.00
16384;DHT22;8301;51.440;6.610;2023-06-26T15:09:40;25.00;1.00
16384;DHT22;8301;51.440;6.610;2023-06-26T15:12:07;25.00;1.00
16384;DHT22;8301;51.440;6.610;2023-06-26T15:14:34;25.10;1.00
16384;DHT22;8301;51.440;6.610;2023-06-26T15:17:01;24.50;1.00
16384;DHT22;8301;51.440;6.610;2023-06-26T15:19:28;24.40;1.00
16384;DHT22;8301;51.440;6.610;2023-06-26T15:21:54;24.40;1.00
16384;DHT22;8301;51.440;6.610;2023-06-26T15:24:21;24.50;1.00
16384;DHT22;8301;51.440;6.610;2023-06-26T15:26:48;24.30;1.00
16384;DHT22;8301;51.440;6.610;2023-06-26T15:29:15;24.00;1.00
16384;DHT22;8301;51.440;6.610;2023-06-26T15:31:43;23.90;1.00
16384;DHT22;8301;51.440;6.610;2023-06-26T15:34:10;23.90;1.00
16384;DHT22;8301;51.440;6.610;2023-06-26T15:36:39;23.90;1.00
16384;DHT22;8301;51.440;6.610;2023-06-26T15:39:06;23.90;1.00
16384;DHT22;8301;51.440;6.610;2023-06-26T15:41:32;23.50;1.00
16384;DHT22;8301;51.440;6.610;2023-06-26T15:44:01;23.50;1.00
16384;DHT22;8301;51.440;6.610;2023-06-26T15:46:28;23.40;1.00
16384;DHT22;8301;51.440;6.610;2023-06-26T15:49:06;23.10;1.00
16384;DHT22;8301;51.440;6.610;2023-06-26T15:51:32;23.10;1.00
16384;DHT22;8301;51.440;6.610;2023-06-26T15:54:01;23.10;1.00
16384;DHT22;8301;51.440;6.610;2023-06-26T15:56:28;23.10;1.00
16384;DHT22;8301;51.440;6.610;2023-06-26T15:58:55;23.00;1.00
16384;DHT22;8301;51.440;6.610;2023-06-26T16:01:21;22.90;1.00
16384;DHT22;8301;51.440;6.610;2023-06-26T16:03:48;22.80;1.00
16384;DHT22;8301;51.440;6.610;2023-06-26T16:06:15;22.80;1.00
16384;DHT22;8301;51.440;6.610;2023-06-26T16:08:42;22.70;1.00
16384;DHT22;8301;51.440;6.610;2023-06-26T16:11:10;22.80;1.00
16384;DHT22;8301;51.440;6.610;2023-06-26T16:13:39;22.80;1.00
16384;DHT22;8301;51.440;6.610;2023-06-26T16:16:05;22.90;1.00
16384;DHT22;8301;51.440;6.610;2023-06-26T16:18:34;23.00;1.00
16384;DHT22;8301;51.440;6.610;2023-06-26T16:21:01;22.70;1.00